sensor_id;sensor_type;location;lat;lon;timestamp;temperature;humidity
7445;DHT22;3764;48.126;11.594;2022-12-15T00:00:22;0.70;99.90
7445;DHT22;3764;48.126;11.594;2022-12-15T00:03:06;0.70;99.90
7445;DHT22;3764;48.126;11.594;2022-12-15T00:05:51;0.70;99.90
7445;DHT22;3764;48.126;11.594;2022-12-15T00:08:35;0.70;99.90
7445;DHT22;3764;48.126;11.594;2022-12-15T00:11:19;0.70;99.90
7445;DHT22;3764;48.126;11.594;2022-12-15T00:14:04;0.70;99.90
7445;DHT22;3764;48.126;11.594;2022-12-15T00:16:50;0.70;99.90
7445;DHT22;3764;48.126;11.594;2022-12-15T00:19:34;0.70;99.90
7445;DHT22;3764;48.126;11.594;2022-12-15T00:22:18;0.60;99.90
7445;DHT22;3764;48.126;11.594;2022-12-15T00:25:03;0.60;99.90
7445;DHT22;3764;48.126;11.594;2022-12-15T00:27:48;0.60;99.90
7445;DHT22;3764;48.126;11.594;2022-12-15T00:30:32;0.50;99.90
7445;DHT22;3764;48.126;11.594;2022-12-15T00:33:18;0.50;99.90
7445;DHT22;3764;48.126;11.594;2022-12-15T00:36:02;0.50;99.90
7445;DHT22;3764;48.126;11.594;2022-12-15T00:38:47;0.40;99.90
7445;DHT22;3764;48.126;11.594;2022-12-15T00:41:15;0.40;99.90
7445;DHT22;3764;48.126;11.594;2022-12-15T00:43:43;0.40;99.90
7445;DHT22;3764;48.126;11.594;2022-12-15T00:46:10;0.40;99.90
7445;DHT22;3764;48.126;11.594;2022-12-15T00:48:56;0.40;99.90
7445;DHT22;3764;48.126;11.594;2022-12-15T00:51:24;0.50;99.90
7445;DHT22;3764;48.126;11.594;2022-12-15T00:54:09;0.40;99.90
7445;DHT22;3764;48.126;11.594;2022-12-15T00:56:53;0.50;99.90
7445;DHT22;3764;48.126;11.594;2022-12-15T00:59:38;0.50;99.90
7445;DHT22;3764;48.126;11.594;2022-12-15T01:02:22;0.50;99.90
7445;DHT22;3764;48.126;11.594;2022-12-15T01:05:08;0.50;99.90
7445;DHT22;3764;48.126;11.594;2022-12-15T01:07:53;0.50;99.90
7445;DHT22;3764;48.126;11.594;2022-12-15T01:10:37;0.40;99.90
7445;DHT22;3764;48.126;11.594;2022-12-15T01:13:22;0.40;99.90
7445;DHT22;3764;48.126;11.594;2022-12-15T01:16:09;0.40;99.90
7445;DHT22;3764;48.126;11.594;2022-12-15T01:18:54;0.40;99.90
7445;DHT22;3764;48.126;11.594;2022-12-15T01:21:40;0.40;99.90
7445;DHT22;3764;48.126;11.594;2022-12-15T01:24:07;0.40;99.90
7445;DHT22;3764;48.126;11.594;2022-12-15T01:26:34;0.40;99.90
7445;DHT22;3764;48.126;11.594;2022-12-15T01:29:01;0.40;99.90
7445;DHT22;3764;48.126;11.594;2022-12-15T01:31:28;0.40;99.90
7445;DHT22;3764;48.126;11.594;2022-12-15T01:33:55;0.40;99.90
7445;DHT22;3764;48.126;11.594;2022-12-15T01:36:22;0.50;99.90
7445;DHT22;3764;48.126;11.594;2022-12-15T01:38:51;0.40;99.90
7445;DHT22;3764;48.126;11.594;2022-12-15T01:41:18;0.40;99.90
7445;DHT22;3764;48.126;11.594;2022-12-15T01:43:44;0.40;99.90
7445;DHT22;3764;48.126;11.594;2022-12-15T01:46:13;0.40;99.90
7445;DHT22;3764;48.126;11.594;2022-12-15T01:48:44;0.30;99.90
7445;DHT22;3764;48.126;11.594;2022-12-15T01:51:17;0.30;99.90
7445;DHT22;3764;48.126;11.594;2022-12-15T01:53:49;0.40;99.90
7445;DHT22;3764;48.126;11.594;2022-12-15T01:56:20;0.40;99.90
7445;DHT22;3764;48.126;11.594;2022-12-15T01:58:51;0.40;99.90
7445;DHT22;3764;48.126;11.594;2022-12-15T02:01:19;0.40;99.90
7445;DHT22;3764;48.126;11.594;2022-12-15T02:03:47;0.40;99.90
7445;DHT22;3764;48.126;11.594;2022-12-15T02:06:14;0.40;99.90
7445;DHT22;3764;48.126;11.594;2022-12-15T02:08:44;0.40;99.90
7445;DHT22;3764;48.126;11.594;2022-12-15T02:11:43;0.40;99.90
7445;DHT22;3764;48.126;11.594;2022-12-15T02:14:11;0.40;99.90
7445;DHT22;3764;48.126;11.594;2022-12-15T02:16:53;0.30;99.90
7445;DHT22;3764;48.126;11.594;2022-12-15T02:19:51;0.40;99.90
7445;DHT22;3764;48.126;11.594;2022-12-15T02:22:30;0.30;99.90
7445;DHT22;3764;48.126;11.594;2022-12-15T02:25:26;0.30;99.90
7445;DHT22;3764;48.126;11.594;2022-12-15T02:28:03;0.30;99.90
7445;DHT22;3764;48.126;11.594;2022-12-15T02:30:48;0.30;99.90
7445;DHT22;3764;48.126;11.594;2022-12-15T02:33:43;0.30;99.90
7445;DHT22;3764;48.126;11.594;2022-12-15T02:36:17;0.30;99.90
7445;DHT22;3764;48.126;11.594;2022-12-15T02:38:46;0.30;99.90
7445;DHT22;3764;48.126;11.594;2022-12-15T02:41:35;0.30;99.90
7445;DHT22;3764;48.126;11.594;2022-12-15T02:44:06;0.30;99.90
7445;DHT22;3764;48.126;11.594;2022-12-15T02:46:43;0.30;99.90
7445;DHT22;3764;48.126;11.594;2022-12-15T02:49:18;0.30;99.90
7445;DHT22;3764;48.126;11.594;2022-12-15T02:51:52;0.30;99.90
7445;DHT22;3764;48.126;11.594;2022-12-15T02:54:38;0.30;99.90
7445;DHT22;3764;48.126;11.594;2022-12-15T02:57:14;0.20;99.90
7445;DHT22;3764;48.126;11.594;2022-12-15T02:59:46;0.20;99.90
7445;DHT22;3764;48.126;11.594;2022-12-15T03:02:22;0.20;99.90
7445;DHT22;3764;48.126;11.594;2022-12-15T03:04:50;0.10;99.90
7445;DHT22;3764;48.126;11.594;2022-12-15T03:07:18;0.20;99.90
7445;DHT22;3764;48.126;11.594;2022-12-15T03:09:45;0.20;99.90
7445;DHT22;3764;48.126;11.594;2022-12-15T03:12:12;0.20;99.90
7445;DHT22;3764;48.126;11.594;2022-12-15T03:14:39;0.20;99.90
7445;DHT22;3764;48.126;11.594;2022-12-15T03:17:06;0.20;99.90
7445;DHT22;3764;48.126;11.594;2022-12-15T03:19:35;0.10;99.90
7445;DHT22;3764;48.126;11.594;2022-12-15T03:22:02;0.10;99.90
7445;DHT22;3764;48.126;11.594;2022-12-15T03:24:30;0.00;99.90
7445;DHT22;3764;48.126;11.594;2022-12-15T03:26:57;0.10;99.90
7445;DHT22;3764;48.126;11.594;2022-12-15T03:29:24;0.10;99.90
7445;DHT22;3764;48.126;11.594;2022-12-15T03:31:51;0.10;99.90
7445;DHT22;3764;48.126;11.594;2022-12-15T03:34:18;0.10;99.90
7445;DHT22;3764;48.126;11.594;2022-12-15T03:36:47;0.10;99.90
7445;DHT22;3764;48.126;11.594;2022-12-15T03:39:14;0.10;99.90
7445;DHT22;3764;48.126;11.594;2022-12-15T03:41:41;0.10;99.90
7445;DHT22;3764;48.126;11.594;2022-12-15T03:44:08;0.10;99.90
7445;DHT22;3764;48.126;11.594;2022-12-15T03:46:35;0.10;99.90
7445;DHT22;3764;48.126;11.594;2022-12-15T03:49:02;0.10;99.90
7445;DHT22;3764;48.126;11.594;2022-12-15T03:51:30;0.10;99.90
7445;DHT22;3764;48.126;11.594;2022-12-15T03:53:58;0.10;99.90
7445;DHT22;3764;48.126;11.594;2022-12-15T03:56:25;0.10;99.90
7445;DHT22;3764;48.126;11.594;2022-12-15T03:58:52;0.10;99.90
7445;DHT22;3764;48.126;11.594;2022-12-15T04:01:26;0.10;99.90
7445;DHT22;3764;48.126;11.594;2022-12-15T04:03:53;0.10;99.90
7445;DHT22;3764;48.126;11.594;2022-12-15T04:06:21;0.00;99.90
7445;DHT22;3764;48.126;11.594;2022-12-15T04:08:48;0.00;99.90
7445;DHT22;3764;48.126;11.594;2022-12-15T04:11:17;0.00;99.90
7445;DHT22;3764;48.126;11.594;2022-12-15T04:13:44;0.00;99.90
7445;DHT22;3764;48.126;11.594;2022-12-15T04:16:11;-0.10;99.90
7445;DHT22;3764;48.126;11.594;2022-12-15T04:18:39;-0.10;99.90
7445;DHT22;3764;48.126;11.594;2022-12-15T04:21:06;-0.10;99.90
7445;DHT22;3764;48.126;11.594;2022-12-15T04:23:32;0.00;99.90
7445;DHT22;3764;48.126;11.594;2022-12-15T04:25:59;-0.10;99.90
7445;DHT22;3764;48.126;11.594;2022-12-15T04:28:45;-0.10;99.90
7445;DHT22;3764;48.126;11.594;2022-12-15T04:31:30;-0.10;99.90
7445;DHT22;3764;48.126;11.594;2022-12-15T04:34:19;-0.10;99.90
7445;DHT22;3764;48.126;11.594;2022-12-15T04:37:06;-0.20;99.90
7445;DHT22;3764;48.126;11.594;2022-12-15T04:39:52;-0.20;99.90
7445;DHT22;3764;48.126;11.594;2022-12-15T04:42:41;-0.20;99.90
7445;DHT22;3764;48.126;11.594;2022-12-15T04:45:28;-0.20;99.90
7445;DHT22;3764;48.126;11.594;2022-12-15T04:48:12;-0.20;99.90
7445;DHT22;3764;48.126;11.594;2022-12-15T04:50:57;-0.10;99.90
7445;DHT22;3764;48.126;11.594;2022-12-15T04:53:42;-0.10;99.90
7445;DHT22;3764;48.126;11.594;2022-12-15T04:56:26;-0.10;99.90
7445;DHT22;3764;48.126;11.594;2022-12-15T04:59:11;-0.10;99.90
7445;DHT22;3764;48.126;11.594;2022-12-15T05:01:56;-0.10;99.90
7445;DHT22;3764;48.126;11.594;2022-12-15T05:04:41;-0.10;99.90
7445;DHT22;3764;48.126;11.594;2022-12-15T05:07:26;-0.10;99.90
7445;DHT22;3764;48.126;11.594;2022-12-15T05:10:10;-0.10;99.90
7445;DHT22;3764;48.126;11.594;2022-12-15T05:13:02;-0.10;99.90
7445;DHT22;3764;48.126;11.594;2022-12-15T05:15:46;-0.10;99.90
7445;DHT22;3764;48.126;11.594;2022-12-15T05:18:32;-0.10;99.90
7445;DHT22;3764;48.126;11.594;2022-12-15T05:21:16;-0.10;99.90
7445;DHT22;3764;48.126;11.594;2022-12-15T05:24:01;-0.20;99.90
7445;DHT22;3764;48.126;11.594;2022-12-15T05:26:45;-0.20;99.90
7445;DHT22;3764;48.126;11.594;2022-12-15T05:29:29;-0.20;99.90
7445;DHT22;3764;48.126;11.594;2022-12-15T05:32:14;-0.20;99.90
7445;DHT22;3764;48.126;11.594;2022-12-15T05:34:42;-0.20;99.90
7445;DHT22;3764;48.126;11.594;2022-12-15T05:37:09;-0.20;99.90
7445;DHT22;3764;48.126;11.594;2022-12-15T05:39:36;-0.20;99.90
7445;DHT22;3764;48.126;11.594;2022-12-15T05:42:04;-0.20;99.90
7445;DHT22;3764;48.126;11.594;2022-12-15T05:44:31;-0.20;99.90
7445;DHT22;3764;48.126;11.594;2022-12-15T05:46:58;-0.20;99.90
7445;DHT22;3764;48.126;11.594;2022-12-15T05:49:25;-0.20;99.90
7445;DHT22;3764;48.126;11.594;2022-12-15T05:51:54;-0.20;99.90
7445;DHT22;3764;48.126;11.594;2022-12-15T05:54:22;-0.20;99.90
7445;DHT22;3764;48.126;11.594;2022-12-15T05:56:49;-0.20;99.90
7445;DHT22;3764;48.126;11.594;2022-12-15T05:59:17;-0.30;99.90
7445;DHT22;3764;48.126;11.594;2022-12-15T06:01:44;-0.30;99.90
7445;DHT22;3764;48.126;11.594;2022-12-15T06:04:12;-0.30;99.90
7445;DHT22;3764;48.126;11.594;2022-12-15T06:06:40;-0.30;99.90
7445;DHT22;3764;48.126;11.594;2022-12-15T06:09:09;-0.30;99.90
7445;DHT22;3764;48.126;11.594;2022-12-15T06:11:36;-0.30;99.90
7445;DHT22;3764;48.126;11.594;2022-12-15T06:14:03;-0.40;99.90
7445;DHT22;3764;48.126;11.594;2022-12-15T06:16:30;-0.40;99.90
7445;DHT22;3764;48.126;11.594;2022-12-15T06:18:59;-0.40;99.90
7445;DHT22;3764;48.126;11.594;2022-12-15T06:21:29;-0.40;99.90
7445;DHT22;3764;48.126;11.594;2022-12-15T06:23:57;-0.40;99.90
7445;DHT22;3764;48.126;11.594;2022-12-15T06:26:28;-0.40;99.90
7445;DHT22;3764;48.126;11.594;2022-12-15T06:28:57;-0.30;99.90
7445;DHT22;3764;48.126;11.594;2022-12-15T06:31:27;-0.40;99.90
7445;DHT22;3764;48.126;11.594;2022-12-15T06:33:55;-0.30;99.90
7445;DHT22;3764;48.126;11.594;2022-12-15T06:36:23;-0.30;99.90
7445;DHT22;3764;48.126;11.594;2022-12-15T06:38:50;-0.40;99.90
7445;DHT22;3764;48.126;11.594;2022-12-15T06:41:19;-0.30;99.90
7445;DHT22;3764;48.126;11.594;2022-12-15T06:43:49;-0.40;99.90
7445;DHT22;3764;48.126;11.594;2022-12-15T06:46:17;-0.40;99.90
7445;DHT22;3764;48.126;11.594;2022-12-15T06:48:44;-0.30;99.90
7445;DHT22;3764;48.126;11.594;2022-12-15T06:51:12;-0.30;99.90
7445;DHT22;3764;48.126;11.594;2022-12-15T06:53:40;-0.30;99.90
7445;DHT22;3764;48.126;11.594;2022-12-15T06:56:16;-0.30;99.90
7445;DHT22;3764;48.126;11.594;2022-12-15T06:58:46;-0.30;99.90
7445;DHT22;3764;48.126;11.594;2022-12-15T07:01:16;-0.30;99.90
7445;DHT22;3764;48.126;11.594;2022-12-15T07:03:44;-0.40;99.90
7445;DHT22;3764;48.126;11.594;2022-12-15T07:06:15;-0.40;99.90
7445;DHT22;3764;48.126;11.594;2022-12-15T07:08:43;-0.40;99.90
7445;DHT22;3764;48.126;11.594;2022-12-15T07:11:13;-0.50;99.90
7445;DHT22;3764;48.126;11.594;2022-12-15T07:13:40;-0.50;99.90
7445;DHT22;3764;48.126;11.594;2022-12-15T07:16:09;-0.40;99.90
7445;DHT22;3764;48.126;11.594;2022-12-15T07:18:38;-0.40;99.90
7445;DHT22;3764;48.126;11.594;2022-12-15T07:21:07;-0.40;99.90
7445;DHT22;3764;48.126;11.594;2022-12-15T07:23:35;-0.40;99.90
7445;DHT22;3764;48.126;11.594;2022-12-15T07:26:03;-0.40;99.90
7445;DHT22;3764;48.126;11.594;2022-12-15T07:28:36;-0.40;99.90
7445;DHT22;3764;48.126;11.594;2022-12-15T07:31:08;-0.40;99.90
7445;DHT22;3764;48.126;11.594;2022-12-15T07:33:42;-0.40;99.90
7445;DHT22;3764;48.126;11.594;2022-12-15T07:36:10;-0.40;99.90
7445;DHT22;3764;48.126;11.594;2022-12-15T07:38:37;-0.50;99.90
7445;DHT22;3764;48.126;11.594;2022-12-15T07:41:06;-0.50;99.90
7445;DHT22;3764;48.126;11.594;2022-12-15T07:43:33;-0.40;99.90
7445;DHT22;3764;48.126;11.594;2022-12-15T07:46:01;-0.40;99.90
7445;DHT22;3764;48.126;11.594;2022-12-15T07:48:29;-0.40;99.90
7445;DHT22;3764;48.126;11.594;2022-12-15T07:50:57;-0.40;99.90
7445;DHT22;3764;48.126;11.594;2022-12-15T07:53:25;-0.40;99.90
7445;DHT22;3764;48.126;11.594;2022-12-15T07:55:53;-0.50;99.90
7445;DHT22;3764;48.126;11.594;2022-12-15T07:58:21;-0.40;99.90
7445;DHT22;3764;48.126;11.594;2022-12-15T08:00:48;-0.40;99.90
7445;DHT22;3764;48.126;11.594;2022-12-15T08:03:15;-0.40;99.90
7445;DHT22;3764;48.126;11.594;2022-12-15T08:05:42;-0.30;99.90
7445;DHT22;3764;48.126;11.594;2022-12-15T08:08:10;-0.30;99.90
7445;DHT22;3764;48.126;11.594;2022-12-15T08:10:38;-0.30;99.90
7445;DHT22;3764;48.126;11.594;2022-12-15T08:13:06;-0.30;99.90
7445;DHT22;3764;48.126;11.594;2022-12-15T08:15:34;-0.20;99.90
7445;DHT22;3764;48.126;11.594;2022-12-15T08:18:02;-0.30;99.90
7445;DHT22;3764;48.126;11.594;2022-12-15T08:20:30;-0.30;99.90
7445;DHT22;3764;48.126;11.594;2022-12-15T08:22:57;-0.30;99.90
7445;DHT22;3764;48.126;11.594;2022-12-15T08:25:26;-0.30;99.90
7445;DHT22;3764;48.126;11.594;2022-12-15T08:27:54;-0.30;99.90
7445;DHT22;3764;48.126;11.594;2022-12-15T08:30:22;-0.30;99.90
7445;DHT22;3764;48.126;11.594;2022-12-15T08:32:49;-0.30;99.90
7445;DHT22;3764;48.126;11.594;2022-12-15T08:35:17;-0.30;99.90
7445;DHT22;3764;48.126;11.594;2022-12-15T08:37:44;-0.30;99.90
7445;DHT22;3764;48.126;11.594;2022-12-15T08:40:11;-0.30;99.90
7445;DHT22;3764;48.126;11.594;2022-12-15T08:42:40;-0.30;99.90
7445;DHT22;3764;48.126;11.594;2022-12-15T08:45:08;-0.30;99.90
7445;DHT22;3764;48.126;11.594;2022-12-15T08:47:36;-0.30;99.90
7445;DHT22;3764;48.126;11.594;2022-12-15T08:50:05;-0.30;99.90
7445;DHT22;3764;48.126;11.594;2022-12-15T08:52:32;-0.20;99.90
7445;DHT22;3764;48.126;11.594;2022-12-15T08:54:59;-0.20;99.90
7445;DHT22;3764;48.126;11.594;2022-12-15T08:57:27;-0.30;99.90
7445;DHT22;3764;48.126;11.594;2022-12-15T08:59:55;-0.20;99.90
7445;DHT22;3764;48.126;11.594;2022-12-15T09:02:22;-0.20;99.90
7445;DHT22;3764;48.126;11.594;2022-12-15T09:04:49;-0.20;99.90
7445;DHT22;3764;48.126;11.594;2022-12-15T09:07:16;-0.20;99.90
7445;DHT22;3764;48.126;11.594;2022-12-15T09:09:43;-0.10;99.90
7445;DHT22;3764;48.126;11.594;2022-12-15T09:12:11;-0.20;99.90
7445;DHT22;3764;48.126;11.594;2022-12-15T09:14:38;-0.10;99.90
7445;DHT22;3764;48.126;11.594;2022-12-15T09:17:07;-0.20;99.90
7445;DHT22;3764;48.126;11.594;2022-12-15T09:19:34;-0.20;99.90
7445;DHT22;3764;48.126;11.594;2022-12-15T09:22:01;-0.20;99.90
7445;DHT22;3764;48.126;11.594;2022-12-15T09:24:29;-0.20;99.90
7445;DHT22;3764;48.126;11.594;2022-12-15T09:26:57;-0.20;99.90
7445;DHT22;3764;48.126;11.594;2022-12-15T09:29:24;-0.10;99.90
7445;DHT22;3764;48.126;11.594;2022-12-15T09:31:51;-0.10;99.90
7445;DHT22;3764;48.126;11.594;2022-12-15T09:34:19;-0.10;99.90
7445;DHT22;3764;48.126;11.594;2022-12-15T09:36:46;-0.10;99.90
7445;DHT22;3764;48.126;11.594;2022-12-15T09:39:14;-0.10;99.90
7445;DHT22;3764;48.126;11.594;2022-12-15T09:41:47;-0.10;99.90
7445;DHT22;3764;48.126;11.594;2022-12-15T09:44:16;0.00;99.90
7445;DHT22;3764;48.126;11.594;2022-12-15T09:49:51;0.00;99.90
7445;DHT22;3764;48.126;11.594;2022-12-15T09:52:23;0.00;99.90
7445;DHT22;3764;48.126;11.594;2022-12-15T09:54:51;0.00;99.90
7445;DHT22;3764;48.126;11.594;2022-12-15T09:57:24;0.00;99.90
7445;DHT22;3764;48.126;11.594;2022-12-15T10:00:04;0.00;99.90
7445;DHT22;3764;48.126;11.594;2022-12-15T10:02:54;0.00;99.90
7445;DHT22;3764;48.126;11.594;2022-12-15T10:05:35;0.00;99.90
7445;DHT22;3764;48.126;11.594;2022-12-15T10:08:04;0.00;99.90
7445;DHT22;3764;48.126;11.594;2022-12-15T10:10:33;0.00;99.90
7445;DHT22;3764;48.126;11.594;2022-12-15T10:13:10;0.00;99.90
7445;DHT22;3764;48.126;11.594;2022-12-15T10:15:45;0.10;99.90
7445;DHT22;3764;48.126;11.594;2022-12-15T10:18:19;0.10;99.90
7445;DHT22;3764;48.126;11.594;2022-12-15T10:20:51;0.10;99.90
7445;DHT22;3764;48.126;11.594;2022-12-15T10:23:18;0.10;99.90
7445;DHT22;3764;48.126;11.594;2022-12-15T10:25:48;0.10;99.90
7445;DHT22;3764;48.126;11.594;2022-12-15T10:28:35;0.10;99.90
7445;DHT22;3764;48.126;11.594;2022-12-15T10:31:15;0.10;99.90
7445;DHT22;3764;48.126;11.594;2022-12-15T10:33:50;0.10;99.90
7445;DHT22;3764;48.126;11.594;2022-12-15T10:36:20;0.10;99.90
7445;DHT22;3764;48.126;11.594;2022-12-15T10:38:47;0.10;99.90
7445;DHT22;3764;48.126;11.594;2022-12-15T10:41:16;0.10;99.90
7445;DHT22;3764;48.126;11.594;2022-12-15T10:43:45;0.10;99.90
7445;DHT22;3764;48.126;11.594;2022-12-15T10:46:14;0.20;99.90
7445;DHT22;3764;48.126;11.594;2022-12-15T10:48:44;0.10;99.90
7445;DHT22;3764;48.126;11.594;2022-12-15T10:51:25;0.10;99.90
7445;DHT22;3764;48.126;11.594;2022-12-15T10:54:03;0.10;99.90
7445;DHT22;3764;48.126;11.594;2022-12-15T10:56:32;0.00;99.90
7445;DHT22;3764;48.126;11.594;2022-12-15T10:59:01;0.10;99.90
7445;DHT22;3764;48.126;11.594;2022-12-15T11:01:30;0.10;99.90
7445;DHT22;3764;48.126;11.594;2022-12-15T11:03:57;0.10;99.90
7445;DHT22;3764;48.126;11.594;2022-12-15T11:06:29;0.20;99.90
7445;DHT22;3764;48.126;11.594;2022-12-15T11:09:07;0.20;99.90
7445;DHT22;3764;48.126;11.594;2022-12-15T11:11:45;0.30;99.90
7445;DHT22;3764;48.126;11.594;2022-12-15T11:14:42;0.20;99.90
7445;DHT22;3764;48.126;11.594;2022-12-15T11:17:14;0.20;99.90
7445;DHT22;3764;48.126;11.594;2022-12-15T11:19:48;0.10;99.90
7445;DHT22;3764;48.126;11.594;2022-12-15T11:22:21;0.00;99.90
7445;DHT22;3764;48.126;11.594;2022-12-15T11:24:53;0.10;99.90
7445;DHT22;3764;48.126;11.594;2022-12-15T11:27:27;0.10;99.90
7445;DHT22;3764;48.126;11.594;2022-12-15T11:30:00;0.20;99.90
7445;DHT22;3764;48.126;11.594;2022-12-15T11:32:32;0.20;99.90
7445;DHT22;3764;48.126;11.594;2022-12-15T11:35:00;0.20;99.90
7445;DHT22;3764;48.126;11.594;2022-12-15T11:37:37;0.30;99.90
7445;DHT22;3764;48.126;11.594;2022-12-15T11:40:26;0.30;99.90
7445;DHT22;3764;48.126;11.594;2022-12-15T11:43:11;0.30;99.90
7445;DHT22;3764;48.126;11.594;2022-12-15T11:45:49;0.30;99.90
7445;DHT22;3764;48.126;11.594;2022-12-15T11:48:21;0.30;99.90
7445;DHT22;3764;48.126;11.594;2022-12-15T11:50:57;0.30;99.90
7445;DHT22;3764;48.126;11.594;2022-12-15T11:53:40;0.30;99.90
7445;DHT22;3764;48.126;11.594;2022-12-15T11:56:19;0.30;99.90
7445;DHT22;3764;48.126;11.594;2022-12-15T12:01:56;0.40;99.90
7445;DHT22;3764;48.126;11.594;2022-12-15T12:04:37;0.40;99.90
7445;DHT22;3764;48.126;11.594;2022-12-15T12:07:12;0.40;99.90
7445;DHT22;3764;48.126;11.594;2022-12-15T12:09:49;0.30;99.90
7445;DHT22;3764;48.126;11.594;2022-12-15T12:12:25;0.30;99.90
7445;DHT22;3764;48.126;11.594;2022-12-15T12:15:04;0.40;99.90
7445;DHT22;3764;48.126;11.594;2022-12-15T12:17:39;0.40;99.90
7445;DHT22;3764;48.126;11.594;2022-12-15T12:20:13;0.40;99.90
7445;DHT22;3764;48.126;11.594;2022-12-15T12:22:52;0.40;99.90
7445;DHT22;3764;48.126;11.594;2022-12-15T12:25:22;0.40;99.90
7445;DHT22;3764;48.126;11.594;2022-12-15T12:27:54;0.40;99.90
7445;DHT22;3764;48.126;11.594;2022-12-15T12:30:23;0.40;99.90
7445;DHT22;3764;48.126;11.594;2022-12-15T12:32:54;0.40;99.90
7445;DHT22;3764;48.126;11.594;2022-12-15T12:35:29;0.40;99.90
7445;DHT22;3764;48.126;11.594;2022-12-15T12:37:59;0.40;99.90
7445;DHT22;3764;48.126;11.594;2022-12-15T12:40:40;0.40;99.90
7445;DHT22;3764;48.126;11.594;2022-12-15T12:43:14;0.40;99.90
7445;DHT22;3764;48.126;11.594;2022-12-15T12:45:48;0.40;99.90
7445;DHT22;3764;48.126;11.594;2022-12-15T12:48:23;0.40;99.90
7445;DHT22;3764;48.126;11.594;2022-12-15T12:50:52;0.30;99.90
7445;DHT22;3764;48.126;11.594;2022-12-15T12:53:35;0.40;99.90
7445;DHT22;3764;48.126;11.594;2022-12-15T12:56:04;0.40;99.90
7445;DHT22;3764;48.126;11.594;2022-12-15T12:58:33;0.40;99.90
7445;DHT22;3764;48.126;11.594;2022-12-15T13:01:11;0.40;99.90
7445;DHT22;3764;48.126;11.594;2022-12-15T13:03:43;0.40;99.90
7445;DHT22;3764;48.126;11.594;2022-12-15T13:06:25;0.40;99.90
7445;DHT22;3764;48.126;11.594;2022-12-15T13:09:22;0.40;99.90
7445;DHT22;3764;48.126;11.594;2022-12-15T13:11:58;0.40;99.90
7445;DHT22;3764;48.126;11.594;2022-12-15T13:14:35;0.30;99.90
7445;DHT22;3764;48.126;11.594;2022-12-15T13:17:14;0.30;99.90
7445;DHT22;3764;48.126;11.594;2022-12-15T13:20:15;0.30;99.90
7445;DHT22;3764;48.126;11.594;2022-12-15T13:22:43;0.20;99.90
7445;DHT22;3764;48.126;11.594;2022-12-15T13:25:35;0.20;99.90
7445;DHT22;3764;48.126;11.594;2022-12-15T13:28:23;0.20;99.90
7445;DHT22;3764;48.126;11.594;2022-12-15T13:34:05;0.10;99.90
7445;DHT22;3764;48.126;11.594;2022-12-15T13:36:46;0.10;99.90
7445;DHT22;3764;48.126;11.594;2022-12-15T13:42:40;0.00;99.90
7445;DHT22;3764;48.126;11.594;2022-12-15T13:45:20;0.00;99.90
7445;DHT22;3764;48.126;11.594;2022-12-15T13:47:54;-0.10;99.90
7445;DHT22;3764;48.126;11.594;2022-12-15T13:50:32;0.00;99.90
7445;DHT22;3764;48.126;11.594;2022-12-15T13:53:02;-0.10;99.90
7445;DHT22;3764;48.126;11.594;2022-12-15T13:55:35;0.00;99.90
7445;DHT22;3764;48.126;11.594;2022-12-15T13:58:09;0.00;99.90
7445;DHT22;3764;48.126;11.594;2022-12-15T14:00:38;0.00;99.90
7445;DHT22;3764;48.126;11.594;2022-12-15T14:03:13;0.00;99.90
7445;DHT22;3764;48.126;11.594;2022-12-15T14:05:47;0.00;99.90
7445;DHT22;3764;48.126;11.594;2022-12-15T14:08:15;0.10;99.90
7445;DHT22;3764;48.126;11.594;2022-12-15T14:10:45;0.00;99.90
7445;DHT22;3764;48.126;11.594;2022-12-15T14:13:19;0.10;99.90
7445;DHT22;3764;48.126;11.594;2022-12-15T14:15:51;0.10;99.90
7445;DHT22;3764;48.126;11.594;2022-12-15T14:18:30;0.10;99.90
7445;DHT22;3764;48.126;11.594;2022-12-15T14:20:58;0.00;99.90
7445;DHT22;3764;48.126;11.594;2022-12-15T14:23:27;0.00;99.90
7445;DHT22;3764;48.126;11.594;2022-12-15T14:25:56;0.00;99.90
7445;DHT22;3764;48.126;11.594;2022-12-15T14:28:26;0.00;99.90
7445;DHT22;3764;48.126;11.594;2022-12-15T14:30:57;0.00;99.90
7445;DHT22;3764;48.126;11.594;2022-12-15T14:33:26;0.00;99.90
7445;DHT22;3764;48.126;11.594;2022-12-15T14:35:54;0.00;99.90
7445;DHT22;3764;48.126;11.594;2022-12-15T14:38:26;0.00;99.90
7445;DHT22;3764;48.126;11.594;2022-12-15T14:40:59;0.00;99.90
7445;DHT22;3764;48.126;11.594;2022-12-15T14:43:31;0.00;99.90
7445;DHT22;3764;48.126;11.594;2022-12-15T14:46:08;0.00;99.90
7445;DHT22;3764;48.126;11.594;2022-12-15T14:48:38;0.00;99.90
7445;DHT22;3764;48.126;11.594;2022-12-15T14:51:10;0.00;99.90
7445;DHT22;3764;48.126;11.594;2022-12-15T14:53:40;0.00;99.90
7445;DHT22;3764;48.126;11.594;2022-12-15T14:56:12;-0.10;99.90
7445;DHT22;3764;48.126;11.594;2022-12-15T14:58:41;0.00;99.90
7445;DHT22;3764;48.126;11.594;2022-12-15T15:01:21;0.00;99.90
7445;DHT22;3764;48.126;11.594;2022-12-15T15:03:56;0.00;99.90
7445;DHT22;3764;48.126;11.594;2022-12-15T15:06:32;0.00;99.90
7445;DHT22;3764;48.126;11.594;2022-12-15T15:09:20;0.00;99.90
7445;DHT22;3764;48.126;11.594;2022-12-15T15:11:51;0.00;99.90
7445;DHT22;3764;48.126;11.594;2022-12-15T15:14:24;0.00;99.90
7445;DHT22;3764;48.126;11.594;2022-12-15T15:17:00;0.00;99.90
7445;DHT22;3764;48.126;11.594;2022-12-15T15:19:29;0.00;99.90
7445;DHT22;3764;48.126;11.594;2022-12-15T15:21:58;0.00;99.90
7445;DHT22;3764;48.126;11.594;2022-12-15T15:24:33;0.10;99.90
7445;DHT22;3764;48.126;11.594;2022-12-15T15:27:23;0.10;99.90
7445;DHT22;3764;48.126;11.594;2022-12-15T15:29:52;0.10;99.90
7445;DHT22;3764;48.126;11.594;2022-12-15T15:32:31;0.10;99.90
7445;DHT22;3764;48.126;11.594;2022-12-15T15:35:14;0.10;99.90
7445;DHT22;3764;48.126;11.594;2022-12-15T15:37:41;0.00;99.90
7445;DHT22;3764;48.126;11.594;2022-12-15T15:40:10;0.10;99.90
7445;DHT22;3764;48.126;11.594;2022-12-15T15:42:38;0.10;99.90
7445;DHT22;3764;48.126;11.594;2022-12-15T15:45:09;0.10;99.90
7445;DHT22;3764;48.126;11.594;2022-12-15T15:47:39;0.10;99.90
7445;DHT22;3764;48.126;11.594;2022-12-15T15:50:11;0.10;99.90
7445;DHT22;3764;48.126;11.594;2022-12-15T15:52:39;0.10;99.90
7445;DHT22;3764;48.126;11.594;2022-12-15T15:55:11;0.10;99.90
7445;DHT22;3764;48.126;11.594;2022-12-15T15:57:39;0.10;99.90
7445;DHT22;3764;48.126;11.594;2022-12-15T16:00:16;0.00;99.90
7445;DHT22;3764;48.126;11.594;2022-12-15T16:02:44;0.00;99.90
7445;DHT22;3764;48.126;11.594;2022-12-15T16:05:11;0.00;99.90
7445;DHT22;3764;48.126;11.594;2022-12-15T16:07:38;0.00;99.90
7445;DHT22;3764;48.126;11.594;2022-12-15T16:10:11;0.00;99.90
7445;DHT22;3764;48.126;11.594;2022-12-15T16:12:41;0.00;99.90
7445;DHT22;3764;48.126;11.594;2022-12-15T16:15:16;0.00;99.90
7445;DHT22;3764;48.126;11.594;2022-12-15T16:17:44;0.00;99.90
7445;DHT22;3764;48.126;11.594;2022-12-15T16:20:13;-0.10;99.90
7445;DHT22;3764;48.126;11.594;2022-12-15T16:22:43;-0.10;99.90
7445;DHT22;3764;48.126;11.594;2022-12-15T16:25:13;-0.10;99.90
7445;DHT22;3764;48.126;11.594;2022-12-15T16:27:41;-0.10;99.90
7445;DHT22;3764;48.126;11.594;2022-12-15T16:30:21;-0.10;99.90
7445;DHT22;3764;48.126;11.594;2022-12-15T16:32:49;-0.10;99.90
7445;DHT22;3764;48.126;11.594;2022-12-15T16:35:16;-0.10;99.90
7445;DHT22;3764;48.126;11.594;2022-12-15T16:37:44;-0.10;99.90
7445;DHT22;3764;48.126;11.594;2022-12-15T16:40:17;-0.10;99.90
7445;DHT22;3764;48.126;11.594;2022-12-15T16:42:52;-0.10;99.90
7445;DHT22;3764;48.126;11.594;2022-12-15T16:45:23;-0.10;99.90